createdAt,value
2018-08-31T00:02:23.645Z,101371.58
2018-08-31T00:10:38.911Z,101371.78
2018-08-31T00:15:31.440Z,101367.91
2018-08-31T00:20:23.949Z,101373.86
2018-08-31T00:26:10.570Z,101374.84
2018-08-31T00:33:28.625Z,101373.72
2018-08-31T00:38:48.605Z,101378.27
2018-08-31T00:44:00.778Z,101384.14
2018-08-31T00:48:53.409Z,101379.09
2018-08-31T00:53:46.019Z,101389.02
2018-08-31T00:58:38.551Z,101383.02
2018-08-31T01:03:31.088Z,101378.58
2018-08-31T01:08:23.655Z,101392.34
2018-08-31T01:13:16.192Z,101385.78
2018-08-31T01:18:08.760Z,101384.42
2018-08-31T01:23:01.346Z,101378.90
2018-08-31T01:27:53.947Z,101379.07
2018-08-31T01:32:46.556Z,101387.64
2018-08-31T01:37:39.132Z,101390.48
2018-08-31T01:42:31.772Z,101396.21
2018-08-31T01:47:24.284Z,101399.22
2018-08-31T01:52:16.826Z,101391.42
2018-08-31T01:57:09.482Z,101389.48
2018-08-31T02:02:02.171Z,101397.44
2018-08-31T02:12:16.448Z,101400.08
2018-08-31T02:17:08.966Z,101403.44
2018-08-31T02:22:01.478Z,101405.48
2018-08-31T02:26:54.097Z,101400.70
2018-08-31T02:31:46.666Z,101401.39
2018-08-31T02:36:39.234Z,101401.48
2018-08-31T02:41:31.778Z,101405.12
2018-08-31T02:46:24.382Z,101399.94
2018-08-31T02:51:17.002Z,101405.33
2018-08-31T02:56:10.084Z,101396.14
2018-08-31T03:01:02.693Z,101406.19
2018-08-31T03:05:55.243Z,101406.86
2018-08-31T03:10:47.867Z,101415.00
2018-08-31T03:15:40.442Z,101423.27
2018-08-31T03:20:33.003Z,101423.73
2018-08-31T03:25:25.537Z,101432.29
2018-08-31T03:30:18.065Z,101431.80
2018-08-31T03:35:10.643Z,101432.05
2018-08-31T03:40:03.398Z,101438.95
2018-08-31T03:44:55.995Z,101439.23
2018-08-31T03:49:48.586Z,101443.27
2018-08-31T03:54:41.148Z,101447.03
2018-08-31T03:59:33.754Z,101452.80
2018-08-31T04:04:26.310Z,101447.08
2018-08-31T04:09:18.871Z,101445.88
2018-08-31T04:14:11.535Z,101445.98
2018-08-31T04:19:12.877Z,101452.59
2018-08-31T04:24:05.487Z,101453.75
2018-08-31T04:28:58.054Z,101457.56
2018-08-31T04:33:50.594Z,101459.71
2018-08-31T04:38:43.116Z,101468.88
2018-08-31T04:43:35.641Z,101471.44
2018-08-31T04:48:28.206Z,101478.42
2018-08-31T04:53:20.833Z,101484.97
2018-08-31T04:58:13.388Z,101484.21
2018-08-31T05:03:06.074Z,101480.41
2018-08-31T05:07:58.690Z,101478.94
2018-08-31T05:12:51.304Z,101479.54
2018-08-31T05:17:44.279Z,101482.84
2018-08-31T05:22:36.918Z,101478.78
2018-08-31T05:27:29.418Z,101477.81
2018-08-31T05:32:21.960Z,101479.36
2018-08-31T05:37:14.519Z,101478.00
2018-08-31T05:42:07.138Z,101490.18
2018-08-31T05:46:59.694Z,101492.29
2018-08-31T05:51:52.181Z,101497.03
2018-08-31T05:56:44.774Z,101507.85
2018-08-31T06:01:37.439Z,101502.89
2018-08-31T06:06:30.059Z,101513.38
2018-08-31T06:11:22.647Z,101513.86
2018-08-31T06:16:15.236Z,101522.05
2018-08-31T06:21:07.969Z,101524.23
2018-08-31T06:26:00.497Z,101518.70
2018-08-31T06:30:53.440Z,101526.80
2018-08-31T06:35:45.997Z,101529.66
2018-08-31T06:40:38.768Z,101536.19
2018-08-31T06:45:31.503Z,101529.88
2018-08-31T06:50:24.202Z,101545.08
2018-08-31T06:55:16.838Z,101532.36
2018-08-31T07:00:09.595Z,101538.44
2018-08-31T07:05:02.245Z,101560.52
2018-08-31T07:09:54.790Z,101562.58
2018-08-31T07:14:47.397Z,101564.53
2018-08-31T07:19:40.096Z,101569.24
2018-08-31T07:24:32.748Z,101566.64
2018-08-31T07:29:25.459Z,101579.04
2018-08-31T07:34:18.062Z,101582.39
2018-08-31T07:39:11.102Z,101598.61
2018-08-31T07:44:03.847Z,101592.70
2018-08-31T07:48:56.410Z,101604.95
2018-08-31T07:53:49.082Z,101607.97
2018-08-31T07:58:41.674Z,101608.72
2018-08-31T08:03:34.416Z,101611.53
2018-08-31T08:08:26.970Z,101603.91
2018-08-31T08:13:19.703Z,101619.28
2018-08-31T08:18:12.449Z,101617.06
2018-08-31T08:23:05.051Z,101621.38
2018-08-31T08:27:57.657Z,101626.17
2018-08-31T08:32:50.215Z,101624.17
2018-08-31T08:37:42.943Z,101633.83
2018-08-31T08:42:35.586Z,101626.37
2018-08-31T08:47:28.547Z,101630.54
2018-08-31T08:52:21.151Z,101628.62
2018-08-31T08:57:14.744Z,101629.72
2018-08-31T09:02:07.449Z,101636.85
2018-08-31T09:07:00.225Z,101636.71
2018-08-31T09:11:52.959Z,101644.09
2018-08-31T09:16:45.603Z,101641.67
2018-08-31T09:21:38.245Z,101641.16
2018-08-31T09:26:31.219Z,101638.95
2018-08-31T09:31:23.903Z,101636.21
2018-08-31T09:36:16.704Z,101637.19
2018-08-31T09:41:09.311Z,101634.72
2018-08-31T09:46:02.117Z,101639.34
2018-08-31T09:50:54.774Z,101634.41
2018-08-31T09:55:47.328Z,101635.28
2018-08-31T10:00:45.719Z,101642.34
2018-08-31T10:05:38.346Z,101629.23
2018-08-31T10:10:30.900Z,101627.06
2018-08-31T10:15:23.453Z,101626.45
2018-08-31T10:20:16.360Z,101631.54
2018-08-31T10:25:09.047Z,101631.10
2018-08-31T10:30:01.690Z,101632.81
2018-08-31T10:34:54.332Z,101639.41
2018-08-31T10:39:47.099Z,101641.41
2018-08-31T10:44:39.719Z,101628.22
2018-08-31T10:49:32.379Z,101626.91
2018-08-31T10:54:24.999Z,101625.70
2018-08-31T10:59:17.707Z,101636.55
2018-08-31T11:04:10.343Z,101636.92
2018-08-31T11:09:03.950Z,101634.82
2018-08-31T11:13:56.550Z,101630.86
2018-08-31T11:18:49.346Z,101631.22
2018-08-31T11:23:41.911Z,101630.80
2018-08-31T11:28:34.550Z,101638.29
2018-08-31T11:33:27.206Z,101627.91
2018-08-31T11:38:19.826Z,101631.22
2018-08-31T11:43:12.557Z,101642.29
2018-08-31T11:48:05.232Z,101635.52
2018-08-31T11:52:58.145Z,101635.28
2018-08-31T11:57:50.763Z,101638.02
2018-08-31T12:02:43.399Z,101640.81
2018-08-31T12:07:36.138Z,101645.52
2018-08-31T12:12:28.844Z,101645.83
2018-08-31T12:17:21.726Z,101652.79
2018-08-31T12:22:14.370Z,101634.07
2018-08-31T12:27:07.029Z,101632.56
2018-08-31T12:31:59.706Z,101629.08
2018-08-31T12:36:52.643Z,101622.83
2018-08-31T12:41:45.191Z,101614.62
2018-08-31T12:46:37.742Z,101620.08
2018-08-31T12:51:30.883Z,101618.97
2018-08-31T12:56:23.637Z,101618.66
2018-08-31T13:01:17.058Z,101613.39
2018-08-31T13:06:09.901Z,101608.38
2018-08-31T13:11:02.537Z,101616.59
2018-08-31T13:15:55.165Z,101609.74
2018-08-31T13:20:47.844Z,101613.30
2018-08-31T13:25:40.642Z,101613.75
2018-08-31T13:30:33.240Z,101617.23
2018-08-31T13:35:25.753Z,101610.02
2018-08-31T13:40:18.369Z,101608.92
2018-08-31T13:45:11.172Z,101612.47
2018-08-31T13:50:03.780Z,101619.98
2018-08-31T13:54:56.389Z,101618.47
2018-08-31T13:59:49.311Z,101614.71
2018-08-31T14:04:42.085Z,101614.55
2018-08-31T14:09:34.842Z,101615.21
2018-08-31T14:14:27.409Z,101621.66
2018-08-31T14:19:20.004Z,101617.71
2018-08-31T14:24:12.633Z,101623.20
2018-08-31T14:29:05.133Z,101619.59
2018-08-31T14:33:57.708Z,101618.27
2018-08-31T14:38:50.362Z,101630.63
2018-08-31T14:43:43.033Z,101623.80
2018-08-31T14:48:35.684Z,101620.23
2018-08-31T14:53:28.346Z,101613.33
2018-08-31T14:58:20.857Z,101614.33
2018-08-31T15:03:13.694Z,101606.04
2018-08-31T15:08:06.379Z,101607.70
2018-08-31T15:12:59.176Z,101613.22
2018-08-31T15:17:51.690Z,101626.14
2018-08-31T15:22:44.490Z,101620.87
2018-08-31T15:27:37.247Z,101622.27
2018-08-31T15:32:29.959Z,101618.96
2018-08-31T15:37:22.600Z,101621.08
2018-08-31T15:42:15.352Z,101622.95
2018-08-31T15:47:08.131Z,101622.72
2018-08-31T15:52:00.893Z,101626.05
2018-08-31T15:56:53.905Z,101626.66
2018-08-31T16:01:46.711Z,101626.13
2018-08-31T16:06:39.391Z,101622.66
2018-08-31T16:11:32.032Z,101622.70
2018-08-31T16:16:24.686Z,101624.88
2018-08-31T16:21:17.273Z,101626.06
2018-08-31T16:26:10.055Z,101630.20
2018-08-31T16:31:02.702Z,101635.81
2018-08-31T16:35:55.212Z,101643.52
2018-08-31T16:40:47.888Z,101638.91
2018-08-31T16:45:40.572Z,101635.10
2018-08-31T16:50:33.242Z,101631.66
2018-08-31T16:55:25.823Z,101639.12
2018-08-31T17:00:18.543Z,101629.27
2018-08-31T17:05:10.978Z,101632.92
2018-08-31T17:10:03.684Z,101631.30
2018-08-31T17:14:56.323Z,101639.05
2018-08-31T17:19:49.101Z,101641.80
2018-08-31T17:24:41.732Z,101641.59
2018-08-31T17:29:39.061Z,101639.19
2018-08-31T17:34:37.399Z,101651.90
2018-08-31T17:39:29.970Z,101650.31
2018-08-31T17:44:22.664Z,101653.39
2018-08-31T17:49:15.300Z,101664.11
2018-08-31T17:54:07.911Z,101661.69
2018-08-31T17:59:00.544Z,101667.50
2018-08-31T18:03:53.054Z,101677.37
2018-08-31T18:08:45.655Z,101677.11
2018-08-31T18:13:38.359Z,101689.20
2018-08-31T18:18:30.880Z,101685.95
2018-08-31T18:23:23.634Z,101695.00
2018-08-31T18:28:16.186Z,101693.38
2018-08-31T18:33:08.973Z,101692.31
2018-08-31T18:38:01.610Z,101686.59
2018-08-31T18:42:55.056Z,101689.59
2018-08-31T18:47:47.544Z,101702.47
2018-08-31T18:52:40.342Z,101704.09
2018-08-31T18:57:32.941Z,101705.73
2018-08-31T19:02:25.612Z,101705.73
2018-08-31T19:07:18.199Z,101707.90
2018-08-31T19:12:10.859Z,101722.66
2018-08-31T19:17:03.440Z,101716.91
2018-08-31T19:21:55.934Z,101724.01
2018-08-31T19:26:48.499Z,101724.79
2018-08-31T19:31:41.193Z,101732.16
2018-08-31T19:36:33.746Z,101738.09
2018-08-31T19:41:26.411Z,101733.72
2018-08-31T19:46:19.162Z,101735.85
2018-08-31T19:51:11.667Z,101735.81
2018-08-31T19:56:04.972Z,101744.23
2018-08-31T20:00:57.568Z,101752.97
2018-08-31T20:05:50.089Z,101749.65
2018-08-31T20:10:42.691Z,101754.55
2018-08-31T20:15:35.284Z,101760.78
2018-08-31T20:20:27.882Z,101762.08
2018-08-31T20:25:20.576Z,101763.11
2018-08-31T20:30:13.105Z,101774.81
2018-08-31T20:35:06.576Z,101775.55
2018-08-31T20:39:59.172Z,101780.13
2018-08-31T20:44:51.773Z,101790.97
2018-08-31T20:49:44.412Z,101797.70
2018-08-31T20:54:37.040Z,101804.96
2018-08-31T20:59:29.576Z,101804.61
2018-08-31T21:04:22.105Z,101806.44
2018-08-31T21:09:14.683Z,101811.83
2018-08-31T21:14:07.271Z,101821.02
2018-08-31T21:18:59.813Z,101814.41
2018-08-31T21:23:52.393Z,101811.16
2018-08-31T21:28:44.995Z,101815.91
2018-08-31T21:33:37.618Z,101813.14
2018-08-31T21:38:30.190Z,101810.87
2018-08-31T21:43:22.800Z,101820.94
2018-08-31T21:48:15.375Z,101814.04
2018-08-31T21:53:08.108Z,101823.23
2018-08-31T21:58:00.627Z,101824.51
2018-08-31T22:02:53.292Z,101814.92
2018-08-31T22:07:46.238Z,101823.20
2018-08-31T22:12:38.792Z,101828.34
2018-08-31T22:17:31.421Z,101825.53
2018-08-31T22:22:23.966Z,101832.03
2018-08-31T22:27:16.555Z,101835.05
2018-08-31T22:32:09.188Z,101831.22
2018-08-31T22:37:01.820Z,101815.94
2018-08-31T22:41:54.402Z,101826.50
2018-08-31T22:46:46.914Z,101825.13
2018-08-31T22:51:39.612Z,101817.44
2018-08-31T22:56:32.155Z,101808.55
2018-08-31T23:01:24.698Z,101801.36
2018-08-31T23:06:17.252Z,101804.02
2018-08-31T23:11:10.934Z,101801.48
2018-08-31T23:16:03.608Z,101810.13
2018-08-31T23:20:56.167Z,101807.34
2018-08-31T23:25:49.736Z,101811.33
2018-08-31T23:30:42.383Z,101807.95
2018-08-31T23:35:35.153Z,101810.73
2018-08-31T23:40:27.780Z,101816.36
2018-08-31T23:45:20.407Z,101823.91
2018-08-31T23:50:13.047Z,101818.37
2018-08-31T23:55:05.675Z,101819.06
2018-08-31T23:59:58.221Z,101819.30
